Thief River Falls, Minnesota
Current Conditions -  °F | °C
As of 2:55 AM on Thursday 23 Oct 2014 (Local Time) from KTVF Reporting Station
Clear Clear  
Wind Chill: 44°   Ceiling: Unl
Heat Index: 48°   Visibility: 10mi
Dew Point: 46°   Wind: 9mph
Humidity: 93%   Direction: 200°SSW
Pressure: 29.86"   Gusts: NA
Location:  48.12°N, 96.18°W
Report Text: KTVF 230755Z AUTO 20008KT 10SM CLR 09/08 A2986 RMK AO1
Loading
Personal Weather Stations






























Interactive Weather Map New forecast layout! Learn more

10-Day Weather Forecast

Advertisements
Track Severe Weather on mobile